createdAt,value
2023-05-05T00:00:57.374Z,247.19
2023-05-05T00:01:57.395Z,249.30
2023-05-05T00:02:57.484Z,249.01
2023-05-05T00:03:57.441Z,247.19
2023-05-05T00:04:57.446Z,247.14
2023-05-05T00:05:57.550Z,245.53
2023-05-05T00:06:57.514Z,247.68
2023-05-05T00:07:57.528Z,246.97
2023-05-05T00:08:57.581Z,244.64
2023-05-05T00:09:57.598Z,245.46
2023-05-05T00:10:57.775Z,244.10
2023-05-05T00:11:57.607Z,243.65
2023-05-05T00:12:57.698Z,242.44
2023-05-05T00:13:57.653Z,241.44
2023-05-05T00:14:57.676Z,241.82
2023-05-05T00:15:57.740Z,240.91
2023-05-05T00:16:57.771Z,241.13
2023-05-05T00:17:57.837Z,241.86
2023-05-05T00:18:57.794Z,241.61
2023-05-05T00:19:57.823Z,242.24
2023-05-05T00:20:57.865Z,241.01
2023-05-05T00:21:57.817Z,241.23
2023-05-05T00:22:57.847Z,242.59
2023-05-05T00:23:57.881Z,241.24
2023-05-05T00:24:57.893Z,241.47
2023-05-05T00:25:57.925Z,240.88
2023-05-05T00:26:57.940Z,239.43
2023-05-05T00:27:58.000Z,241.73
2023-05-05T00:28:57.994Z,242.50
2023-05-05T00:29:58.024Z,240.47
2023-05-05T00:30:58.036Z,240.94
2023-05-05T00:31:58.074Z,241.81
2023-05-05T00:32:58.113Z,241.15
2023-05-05T00:33:58.117Z,242.61
2023-05-05T00:34:58.127Z,241.85
2023-05-05T00:35:58.437Z,242.08
2023-05-05T00:36:58.232Z,242.46
2023-05-05T00:37:58.287Z,243.01
2023-05-05T00:38:58.288Z,241.87
2023-05-05T00:39:58.303Z,242.76
2023-05-05T00:40:58.291Z,243.41
2023-05-05T00:41:58.304Z,244.08
2023-05-05T00:42:58.357Z,242.86
2023-05-05T00:43:58.356Z,243.05
2023-05-05T00:44:58.381Z,242.39
2023-05-05T00:45:58.458Z,242.16
2023-05-05T00:46:58.460Z,243.87
2023-05-05T00:47:58.543Z,244.37
2023-05-05T00:48:58.550Z,244.49
2023-05-05T00:49:58.515Z,244.25
2023-05-05T00:50:58.543Z,245.23
2023-05-05T00:51:58.575Z,243.96
2023-05-05T00:52:58.600Z,244.77
2023-05-05T00:53:58.632Z,247.20
2023-05-05T00:54:58.653Z,246.93
2023-05-05T00:55:58.703Z,246.97
2023-05-05T00:56:58.697Z,245.77
2023-05-05T00:57:58.757Z,246.21
2023-05-05T00:58:58.762Z,245.88
2023-05-05T00:59:58.797Z,247.63
2023-05-05T01:00:58.835Z,246.86
2023-05-05T01:01:58.865Z,246.66
2023-05-05T01:02:58.950Z,247.68
2023-05-05T01:03:58.964Z,247.16
2023-05-05T01:04:58.953Z,247.73
2023-05-05T01:05:58.957Z,247.64
2023-05-05T01:06:58.987Z,247.63
2023-05-05T01:07:59.059Z,248.75
2023-05-05T01:08:59.070Z,248.67
2023-05-05T01:10:11.530Z,248.43
2023-05-05T01:11:00.141Z,248.52
2023-05-05T01:11:59.061Z,248.72
2023-05-05T01:12:59.116Z,248.90
2023-05-05T01:13:59.055Z,247.40
2023-05-05T01:14:59.066Z,248.80
2023-05-05T01:15:59.112Z,249.11
2023-05-05T01:16:59.037Z,247.32
2023-05-05T01:17:59.090Z,248.08
2023-05-05T01:18:59.049Z,248.61
2023-05-05T01:19:59.048Z,248.81
2023-05-05T01:20:59.013Z,247.77
2023-05-05T01:21:59.010Z,249.16
2023-05-05T01:22:59.008Z,248.08
2023-05-05T01:23:59.025Z,247.60
2023-05-05T01:24:59.021Z,247.51
2023-05-05T01:25:59.016Z,246.89
2023-05-05T01:26:59.037Z,246.58
2023-05-05T01:27:59.112Z,248.11
2023-05-05T01:28:59.131Z,247.82
2023-05-05T01:29:59.168Z,247.62
2023-05-05T01:30:59.198Z,248.41
2023-05-05T01:31:59.360Z,248.07
2023-05-05T01:32:59.387Z,249.28
2023-05-05T01:33:59.355Z,248.01
2023-05-05T01:34:59.383Z,248.78
2023-05-05T01:35:59.413Z,249.31
2023-05-05T01:36:59.487Z,247.79
2023-05-05T01:37:59.505Z,249.06
2023-05-05T01:38:59.546Z,249.79
2023-05-05T01:39:59.592Z,249.48
2023-05-05T01:40:59.632Z,249.36
2023-05-05T01:41:59.656Z,249.22
2023-05-05T01:42:59.732Z,248.48
2023-05-05T01:43:59.760Z,248.97
2023-05-05T01:44:59.770Z,249.54
2023-05-05T01:45:59.805Z,249.38
2023-05-05T01:46:59.880Z,248.33
2023-05-05T01:47:59.960Z,249.22
2023-05-05T01:49:00.030Z,248.32
2023-05-05T01:49:59.950Z,249.09
2023-05-05T01:50:59.983Z,249.89
2023-05-05T01:52:00.018Z,248.38
2023-05-05T01:53:00.057Z,248.02
2023-05-05T01:54:00.065Z,247.61
2023-05-05T01:55:00.194Z,248.33
2023-05-05T01:56:00.177Z,248.50
2023-05-05T01:57:00.184Z,248.25
2023-05-05T01:58:00.248Z,248.27
2023-05-05T01:59:00.279Z,248.61
2023-05-05T02:00:00.313Z,248.44
2023-05-05T02:01:00.382Z,248.86
2023-05-05T02:02:00.430Z,249.27
2023-05-05T02:03:00.570Z,248.46
2023-05-05T02:04:00.468Z,248.89
2023-05-05T02:05:00.505Z,248.47
2023-05-05T02:06:00.518Z,248.74
2023-05-05T02:07:00.598Z,248.43
2023-05-05T02:08:00.622Z,248.41
2023-05-05T02:09:00.662Z,248.39
2023-05-05T02:10:00.673Z,247.55
2023-05-05T02:11:00.711Z,248.15
2023-05-05T02:12:00.753Z,247.07
2023-05-05T02:13:00.849Z,247.95
2023-05-05T02:14:00.875Z,247.84
2023-05-05T02:15:00.885Z,247.93
2023-05-05T02:16:00.976Z,248.14
2023-05-05T02:17:00.957Z,247.65
2023-05-05T02:18:01.031Z,248.84
2023-05-05T02:19:01.026Z,249.28
2023-05-05T02:20:01.102Z,249.53
2023-05-05T02:21:01.127Z,248.75
2023-05-05T02:22:01.178Z,248.59
2023-05-05T02:23:01.170Z,249.34
2023-05-05T02:24:01.272Z,248.61
2023-05-05T02:25:01.297Z,249.91
2023-05-05T02:26:01.312Z,248.60
2023-05-05T02:27:01.366Z,249.90
2023-05-05T02:28:01.398Z,248.52
2023-05-05T02:29:01.428Z,249.69
2023-05-05T02:30:01.448Z,250.00
2023-05-05T02:31:01.531Z,248.23
2023-05-05T02:32:01.545Z,248.27
2023-05-05T02:33:01.638Z,248.96
2023-05-05T02:34:01.603Z,250.00
2023-05-05T02:35:01.689Z,250.00
2023-05-05T02:36:01.705Z,249.04
2023-05-05T02:37:01.760Z,248.39
2023-05-05T02:38:01.836Z,249.48
2023-05-05T02:39:01.882Z,247.66
2023-05-05T02:40:01.952Z,248.19
2023-05-05T02:41:01.961Z,248.26
2023-05-05T02:42:01.990Z,246.65
2023-05-05T02:43:02.078Z,247.40
2023-05-05T02:44:02.045Z,248.00
2023-05-05T02:45:02.108Z,246.71
2023-05-05T02:46:02.193Z,247.37
2023-05-05T02:47:02.192Z,247.21
2023-05-05T02:48:02.249Z,246.57
2023-05-05T02:49:02.263Z,247.15
2023-05-05T02:50:02.304Z,245.55
2023-05-05T02:51:02.330Z,246.71
2023-05-05T02:52:02.382Z,247.70
2023-05-05T02:53:02.410Z,247.03
2023-05-05T02:54:02.488Z,246.72
2023-05-05T02:55:02.500Z,248.21
2023-05-05T02:56:02.550Z,248.78
2023-05-05T02:57:02.584Z,249.24
2023-05-05T02:58:02.634Z,249.47
2023-05-05T02:59:02.626Z,248.84
2023-05-05T03:00:02.728Z,249.90
2023-05-05T03:01:02.683Z,250.00
2023-05-05T03:02:02.704Z,249.83
2023-05-05T03:03:02.771Z,248.78
2023-05-05T03:04:02.723Z,249.69
2023-05-05T03:05:02.796Z,250.00
2023-05-05T03:06:02.766Z,247.89
2023-05-05T03:07:02.765Z,249.15
2023-05-05T03:08:02.801Z,249.94
2023-05-05T03:09:02.819Z,248.01
2023-05-05T03:10:02.834Z,248.57
2023-05-05T03:11:02.841Z,249.32
2023-05-05T03:12:02.824Z,249.36
2023-05-05T03:13:02.865Z,248.54
2023-05-05T03:14:02.830Z,248.31
2023-05-05T03:15:02.841Z,248.74
2023-05-05T03:16:02.830Z,247.48
2023-05-05T03:17:02.825Z,248.78
2023-05-05T03:18:02.829Z,249.01
2023-05-05T03:19:02.837Z,249.10
2023-05-05T03:20:03.914Z,247.80
2023-05-05T03:21:02.796Z,247.29
2023-05-05T03:22:02.803Z,247.09
2023-05-05T03:23:02.806Z,248.97
2023-05-05T03:24:02.864Z,247.93
2023-05-05T03:25:02.841Z,247.49
2023-05-05T03:26:02.876Z,247.48
2023-05-05T03:27:02.927Z,249.96
2023-05-05T03:28:02.871Z,248.22
2023-05-05T03:29:02.867Z,248.87
2023-05-05T03:30:02.907Z,248.35
2023-05-05T03:31:02.881Z,249.36
2023-05-05T03:32:03.082Z,248.71
2023-05-05T03:33:03.003Z,247.19
2023-05-05T03:34:02.967Z,248.05
2023-05-05T03:35:02.975Z,248.04
2023-05-05T03:36:03.000Z,247.55
2023-05-05T03:37:03.022Z,249.27
2023-05-05T03:38:03.042Z,246.76
2023-05-05T03:39:03.069Z,246.87
2023-05-05T03:40:03.104Z,247.35
2023-05-05T03:41:03.153Z,247.73
2023-05-05T03:42:03.192Z,247.01
2023-05-05T03:43:03.226Z,247.19
2023-05-05T03:44:03.241Z,248.49
2023-05-05T03:45:03.254Z,247.42
2023-05-05T03:46:03.286Z,248.28
2023-05-05T03:47:03.316Z,247.30
2023-05-05T03:48:03.371Z,248.52
2023-05-05T03:49:03.427Z,248.08
2023-05-05T03:50:03.345Z,248.90
2023-05-05T03:51:03.396Z,247.65
2023-05-05T03:52:03.431Z,248.36
2023-05-05T03:53:03.500Z,248.78
2023-05-05T03:54:03.478Z,248.80
2023-05-05T03:55:03.501Z,249.03
2023-05-05T03:56:03.498Z,250.00
2023-05-05T03:57:03.513Z,248.03
2023-05-05T03:58:03.532Z,249.67
2023-05-05T03:59:03.546Z,247.07
2023-05-05T04:00:03.523Z,248.12
2023-05-05T04:01:03.580Z,249.28
2023-05-05T04:02:03.605Z,248.87
2023-05-05T04:03:03.618Z,247.91
2023-05-05T04:04:03.599Z,247.67
2023-05-05T04:05:03.578Z,247.24
2023-05-05T04:06:03.589Z,248.61
2023-05-05T04:07:03.596Z,248.48
2023-05-05T04:08:03.609Z,247.77
2023-05-05T04:09:03.611Z,248.45
2023-05-05T04:10:03.634Z,248.40
2023-05-05T04:11:03.587Z,246.10
2023-05-05T04:12:03.618Z,246.78
2023-05-05T04:13:03.675Z,247.62
2023-05-05T04:14:03.636Z,247.15
2023-05-05T04:15:03.627Z,246.46
2023-05-05T04:16:03.753Z,246.64
2023-05-05T04:17:03.669Z,247.98
2023-05-05T04:18:03.703Z,247.09
2023-05-05T04:19:03.656Z,247.71
2023-05-05T04:20:03.659Z,247.49
2023-05-05T04:21:03.670Z,247.32
2023-05-05T04:22:03.673Z,247.61
2023-05-05T04:23:03.687Z,246.13
2023-05-05T04:24:03.694Z,246.25
2023-05-05T04:25:03.711Z,244.74
2023-05-05T04:26:03.695Z,244.40
2023-05-05T04:27:03.710Z,244.46
2023-05-05T04:28:03.705Z,244.11
2023-05-05T04:29:03.706Z,243.81
2023-05-05T04:30:03.708Z,244.11
2023-05-05T04:31:03.699Z,245.84
2023-05-05T04:32:03.698Z,244.80
2023-05-05T04:33:03.746Z,246.28
2023-05-05T04:34:03.694Z,244.77
2023-05-05T04:35:03.689Z,246.54
2023-05-05T04:36:03.690Z,245.00
2023-05-05T04:37:03.716Z,244.16
2023-05-05T04:38:03.678Z,243.23
2023-05-05T04:39:03.708Z,243.36
2023-05-05T04:40:03.672Z,243.00
2023-05-05T04:41:03.679Z,244.90
2023-05-05T04:42:03.701Z,243.95
2023-05-05T04:43:03.686Z,243.26
2023-05-05T04:44:03.686Z,244.32
2023-05-05T04:45:03.704Z,244.22
2023-05-05T04:46:03.725Z,243.54
2023-05-05T04:47:03.704Z,242.66
2023-05-05T04:48:03.742Z,244.81
2023-05-05T04:49:03.680Z,244.21
2023-05-05T04:50:03.707Z,243.56
2023-05-05T04:51:03.698Z,242.26
2023-05-05T04:52:03.711Z,242.89
2023-05-05T04:53:03.854Z,244.17
2023-05-05T04:54:04.095Z,244.73
2023-05-05T04:55:03.959Z,243.94
2023-05-05T04:56:03.846Z,242.80
2023-05-05T04:57:03.892Z,244.33
2023-05-05T04:58:03.956Z,244.51
2023-05-05T04:59:03.936Z,245.51
2023-05-05T05:00:03.970Z,244.73
2023-05-05T05:01:10.939Z,243.16
2023-05-05T05:02:04.050Z,243.36
2023-05-05T05:03:03.983Z,243.61
2023-05-05T05:04:03.975Z,244.22
2023-05-05T05:05:03.955Z,244.58
2023-05-05T05:06:03.947Z,245.23
2023-05-05T05:07:03.925Z,245.90
2023-05-05T05:08:03.929Z,246.34
2023-05-05T05:09:03.890Z,244.66
2023-05-05T05:10:03.941Z,244.76
2023-05-05T05:11:03.955Z,247.49
2023-05-05T05:12:03.896Z,246.95
2023-05-05T05:13:03.902Z,247.57
2023-05-05T05:14:03.861Z,248.45
2023-05-05T05:15:03.891Z,248.22
2023-05-05T05:16:03.871Z,246.16
2023-05-05T05:17:03.881Z,245.76
2023-05-05T05:18:03.904Z,246.24
2023-05-05T05:19:03.832Z,247.17
2023-05-05T05:20:03.826Z,248.51
2023-05-05T05:21:03.855Z,247.42
2023-05-05T05:22:03.885Z,247.72
2023-05-05T05:23:03.814Z,247.13
2023-05-05T05:24:03.794Z,247.39
2023-05-05T05:25:03.842Z,247.65
2023-05-05T05:26:03.842Z,248.31
2023-05-05T05:27:03.794Z,246.86
2023-05-05T05:28:10.346Z,247.61
2023-05-05T05:29:04.784Z,247.72
2023-05-05T05:30:03.758Z,247.83
2023-05-05T05:31:03.762Z,249.47
2023-05-05T05:32:04.104Z,255.79
2023-05-05T05:33:03.812Z,263.70
2023-05-05T05:34:03.748Z,255.78
2023-05-05T05:35:03.746Z,250.10
2023-05-05T05:36:03.765Z,246.92
2023-05-05T05:37:04.198Z,247.20
2023-05-05T05:38:03.730Z,245.83
2023-05-05T05:39:03.687Z,248.24
2023-05-05T05:40:03.659Z,249.61
2023-05-05T05:41:03.669Z,250.00
2023-05-05T05:42:03.702Z,248.38
2023-05-05T05:43:03.748Z,245.44
2023-05-05T05:44:03.787Z,240.30
2023-05-05T05:45:03.832Z,242.50
2023-05-05T05:46:10.872Z,243.92
2023-05-05T05:47:04.140Z,239.56
2023-05-05T05:48:03.914Z,235.42
2023-05-05T05:49:03.844Z,238.14
2023-05-05T05:50:03.840Z,239.84
2023-05-05T05:51:03.820Z,240.70
2023-05-05T05:52:03.826Z,242.42
2023-05-05T05:53:03.857Z,244.61
2023-05-05T05:54:03.802Z,242.90
2023-05-05T05:55:03.774Z,243.05
2023-05-05T05:56:03.821Z,238.05
2023-05-05T05:57:03.745Z,238.80
2023-05-05T05:58:03.789Z,232.51
2023-05-05T05:59:03.775Z,229.28
2023-05-05T06:00:03.754Z,225.68
2023-05-05T06:01:03.764Z,228.09
2023-05-05T06:02:03.756Z,231.72
2023-05-05T06:03:03.866Z,232.32
2023-05-05T06:04:03.825Z,235.99
2023-05-05T06:05:03.733Z,240.17
2023-05-05T06:06:03.734Z,240.12
2023-05-05T06:07:03.686Z,241.43
2023-05-05T06:08:03.702Z,237.28
2023-05-05T06:09:03.722Z,239.31
2023-05-05T06:10:18.529Z,240.93
2023-05-05T06:11:04.677Z,241.29
2023-05-05T06:12:03.718Z,241.39
2023-05-05T06:13:03.732Z,241.56
2023-05-05T06:14:03.730Z,238.29
2023-05-05T06:15:03.675Z,233.99
2023-05-05T06:16:03.661Z,231.16
2023-05-05T06:17:03.710Z,229.24
2023-05-05T06:18:03.686Z,226.98
2023-05-05T06:19:03.624Z,227.04
2023-05-05T06:20:03.671Z,224.67
2023-05-05T06:21:03.702Z,224.47
2023-05-05T06:22:03.754Z,222.89
2023-05-05T06:23:03.763Z,222.35
2023-05-05T06:24:03.795Z,220.53
2023-05-05T06:25:03.846Z,217.87
2023-05-05T06:26:03.875Z,221.10
2023-05-05T06:27:03.903Z,222.41
2023-05-05T06:28:03.924Z,219.63
2023-05-05T06:29:03.933Z,219.53
2023-05-05T06:30:03.972Z,218.36
2023-05-05T06:31:04.043Z,214.10
2023-05-05T06:32:04.099Z,214.15
2023-05-05T06:33:04.117Z,215.57
2023-05-05T06:34:04.180Z,216.14
2023-05-05T06:35:04.151Z,216.20
2023-05-05T06:36:04.202Z,224.63
2023-05-05T06:37:04.230Z,219.49
2023-05-05T06:38:04.286Z,212.68
2023-05-05T06:39:04.386Z,212.45
2023-05-05T06:40:04.430Z,207.79
2023-05-05T06:41:04.478Z,206.97
2023-05-05T06:42:04.442Z,206.88
2023-05-05T06:43:04.447Z,206.52
2023-05-05T06:44:04.460Z,213.69
2023-05-05T06:45:04.455Z,215.96
2023-05-05T06:46:04.507Z,219.71
2023-05-05T06:47:04.585Z,219.66
2023-05-05T06:48:04.685Z,221.93
2023-05-05T06:49:04.649Z,225.57
2023-05-05T06:50:04.668Z,227.94
2023-05-05T06:51:04.780Z,227.16
2023-05-05T06:52:04.713Z,230.23
2023-05-05T06:53:04.810Z,234.78
2023-05-05T06:54:04.764Z,237.07
2023-05-05T06:55:04.772Z,236.02
2023-05-05T06:56:04.778Z,237.55
2023-05-05T06:57:04.748Z,240.13
2023-05-05T06:58:05.156Z,244.00
2023-05-05T06:59:04.840Z,250.00
2023-05-05T07:00:04.818Z,244.37
2023-05-05T07:01:04.918Z,224.09
2023-05-05T07:02:04.883Z,215.16
2023-05-05T07:03:05.004Z,207.53
2023-05-05T07:04:05.051Z,222.04
2023-05-05T07:05:05.075Z,237.36
2023-05-05T07:06:05.108Z,241.85
2023-05-05T07:07:05.165Z,243.61
2023-05-05T07:08:05.231Z,244.15
2023-05-05T07:09:05.236Z,244.43
2023-05-05T07:10:05.317Z,246.84
2023-05-05T07:11:05.410Z,248.47
2023-05-05T07:12:05.357Z,247.80
2023-05-05T07:13:05.470Z,247.64
2023-05-05T07:14:05.416Z,248.38
2023-05-05T07:15:19.218Z,248.12
2023-05-05T07:16:06.470Z,248.26
2023-05-05T07:17:05.408Z,248.38
2023-05-05T07:18:05.501Z,248.95
2023-05-05T07:19:05.473Z,248.62
2023-05-05T07:20:05.442Z,250.25
2023-05-05T07:21:05.479Z,247.96
2023-05-05T07:22:05.390Z,249.64
2023-05-05T07:23:05.364Z,250.00
2023-05-05T07:24:05.405Z,249.51
2023-05-05T07:25:05.420Z,249.38
2023-05-05T07:26:05.406Z,248.69
2023-05-05T07:27:05.342Z,246.17
2023-05-05T07:28:05.669Z,245.02
2023-05-05T07:29:05.332Z,247.42
2023-05-05T07:30:10.172Z,245.50
2023-05-05T07:31:06.376Z,245.53
2023-05-05T07:32:05.347Z,245.62
2023-05-05T07:33:05.341Z,245.93
2023-05-05T07:34:05.276Z,245.83
2023-05-05T07:35:05.289Z,250.46
2023-05-05T07:36:05.275Z,227.14
2023-05-05T07:37:05.316Z,213.62
2023-05-05T07:38:05.333Z,210.70
2023-05-05T07:39:05.341Z,195.03
2023-05-05T07:40:05.262Z,195.68
2023-05-05T07:41:05.222Z,190.19
2023-05-05T07:42:05.212Z,196.95
2023-05-05T07:43:05.223Z,208.14
2023-05-05T07:44:05.245Z,224.05
2023-05-05T07:45:05.232Z,230.03
2023-05-05T07:46:05.273Z,228.08
2023-05-05T07:47:05.262Z,230.36
2023-05-05T07:48:05.250Z,232.72
2023-05-05T07:49:05.238Z,232.82
2023-05-05T07:50:05.233Z,232.48
2023-05-05T07:51:05.166Z,230.00
2023-05-05T07:52:05.153Z,232.37
2023-05-05T07:53:13.889Z,230.29
2023-05-05T07:54:06.158Z,230.41
2023-05-05T07:55:05.152Z,230.37
2023-05-05T07:56:05.124Z,229.91
2023-05-05T07:57:05.128Z,231.80
2023-05-05T07:58:05.125Z,230.05
2023-05-05T07:59:05.117Z,230.44
2023-05-05T08:00:05.131Z,227.74
2023-05-05T08:01:05.111Z,228.33
2023-05-05T08:02:05.146Z,215.44
2023-05-05T08:03:05.304Z,223.45
2023-05-05T08:04:05.208Z,224.06
2023-05-05T08:05:05.300Z,224.81
2023-05-05T08:06:05.211Z,223.73
2023-05-05T08:07:05.250Z,224.59
2023-05-05T08:08:05.299Z,225.43
2023-05-05T08:09:05.335Z,229.68
2023-05-05T08:10:05.342Z,232.23
2023-05-05T08:11:05.391Z,232.53
2023-05-05T08:12:05.397Z,232.64
2023-05-05T08:13:05.758Z,233.47
2023-05-05T08:14:05.473Z,233.25
2023-05-05T08:15:05.555Z,230.54
2023-05-05T08:16:05.533Z,228.16
2023-05-05T08:17:05.480Z,226.11
2023-05-05T08:18:05.543Z,227.52
2023-05-05T08:19:14.589Z,227.10
2023-05-05T08:20:06.533Z,227.23
2023-05-05T08:21:05.513Z,227.95
2023-05-05T08:22:05.525Z,230.01
2023-05-05T08:23:05.554Z,234.98
2023-05-05T08:24:05.499Z,243.67
2023-05-05T08:25:05.567Z,248.45
2023-05-05T08:26:06.802Z,248.61
2023-05-05T08:27:05.836Z,249.20
2023-05-05T08:28:05.521Z,251.11
2023-05-05T08:29:05.475Z,256.61
2023-05-05T08:30:05.476Z,263.05
2023-05-05T08:31:05.500Z,255.11
2023-05-05T08:32:05.436Z,251.72
2023-05-05T08:33:05.795Z,242.35
2023-05-05T08:34:05.465Z,232.76
2023-05-05T08:35:05.590Z,232.59
2023-05-05T08:36:05.387Z,229.69
2023-05-05T08:37:05.412Z,228.00
2023-05-05T08:38:05.773Z,214.90
2023-05-05T08:39:05.370Z,195.73
2023-05-05T08:40:05.391Z,166.84
2023-05-05T08:41:05.426Z,193.90
2023-05-05T08:42:05.463Z,195.49
2023-05-05T08:43:05.716Z,185.63
2023-05-05T08:44:05.485Z,176.86
2023-05-05T08:45:05.804Z,156.90
2023-05-05T08:46:05.543Z,153.08
2023-05-05T08:47:05.762Z,136.59
2023-05-05T08:48:05.708Z,155.13
2023-05-05T08:49:05.720Z,151.91
2023-05-05T08:50:05.782Z,153.77
2023-05-05T08:51:05.894Z,153.12
2023-05-05T08:52:05.932Z,173.41
2023-05-05T08:53:06.293Z,184.03
2023-05-05T08:54:05.946Z,175.96
2023-05-05T08:55:06.190Z,179.11
2023-05-05T08:56:06.023Z,172.86
2023-05-05T08:57:06.074Z,176.89
2023-05-05T08:58:06.075Z,179.91
2023-05-05T08:59:06.138Z,171.98
2023-05-05T09:00:06.159Z,166.32
2023-05-05T09:01:06.180Z,171.31
2023-05-05T09:02:06.213Z,165.30
2023-05-05T09:03:06.866Z,173.90
2023-05-05T09:04:06.217Z,184.52
2023-05-05T09:05:06.441Z,180.61
2023-05-05T09:06:06.290Z,180.29
2023-05-05T09:07:06.366Z,180.15
2023-05-05T09:08:06.304Z,183.68
2023-05-05T09:09:06.322Z,188.87
2023-05-05T09:10:06.302Z,195.25
2023-05-05T09:11:06.302Z,200.35
2023-05-05T09:12:06.302Z,205.22
2023-05-05T09:13:06.405Z,207.91
2023-05-05T09:14:06.461Z,211.99
2023-05-05T09:15:06.631Z,212.02
2023-05-05T09:16:07.545Z,212.08
2023-05-05T09:17:06.523Z,213.28
2023-05-05T09:18:06.590Z,216.21
2023-05-05T09:19:07.211Z,222.62
2023-05-05T09:20:06.555Z,229.85
2023-05-05T09:21:06.436Z,231.28
2023-05-05T09:22:06.464Z,230.95
2023-05-05T09:23:06.526Z,231.13
2023-05-05T09:24:08.182Z,228.25
2023-05-05T09:25:07.054Z,224.13
2023-05-05T09:26:06.706Z,225.50
2023-05-05T09:27:06.773Z,227.16
2023-05-05T09:28:06.809Z,224.41
2023-05-05T09:29:07.205Z,226.87
2023-05-05T09:30:06.934Z,230.42
2023-05-05T09:31:06.971Z,227.80
2023-05-05T09:32:07.001Z,225.82
2023-05-05T09:33:07.164Z,225.39
2023-05-05T09:34:07.157Z,221.63
2023-05-05T09:35:07.298Z,220.84
2023-05-05T09:36:07.268Z,221.76
2023-05-05T09:37:07.287Z,223.99
2023-05-05T09:38:07.346Z,221.05
2023-05-05T09:39:07.647Z,219.83
2023-05-05T09:40:07.461Z,212.55
2023-05-05T09:41:07.526Z,214.04
2023-05-05T09:42:07.620Z,213.81
2023-05-05T09:43:07.620Z,215.26
2023-05-05T09:44:07.717Z,227.00
2023-05-05T09:45:07.880Z,227.46
2023-05-05T09:46:07.910Z,233.41
2023-05-05T09:47:18.177Z,232.62
2023-05-05T09:48:08.871Z,226.10
2023-05-05T09:49:08.230Z,228.29
2023-05-05T09:50:08.098Z,231.29
2023-05-05T09:51:07.792Z,231.54
2023-05-05T09:52:07.820Z,223.40
2023-05-05T09:53:07.785Z,214.09
2023-05-05T09:54:07.865Z,213.09
2023-05-05T09:55:07.838Z,211.83
2023-05-05T09:56:07.849Z,212.23
2023-05-05T09:57:07.901Z,212.79
2023-05-05T09:58:07.912Z,211.22
2023-05-05T09:59:07.905Z,213.38
2023-05-05T10:00:08.194Z,215.21
2023-05-05T10:01:08.026Z,216.55
2023-05-05T10:02:08.051Z,217.35
2023-05-05T10:03:08.097Z,218.82
2023-05-05T10:04:08.112Z,221.11
2023-05-05T10:05:08.180Z,223.64
2023-05-05T10:06:08.146Z,223.34
2023-05-05T10:07:08.245Z,224.19
2023-05-05T10:08:08.281Z,226.24
2023-05-05T10:09:08.341Z,228.98
2023-05-05T10:10:08.435Z,230.07
2023-05-05T10:11:08.412Z,232.55
2023-05-05T10:12:08.364Z,235.48
2023-05-05T10:13:08.381Z,238.26
2023-05-05T10:14:08.438Z,240.69
2023-05-05T10:15:08.434Z,239.70
2023-05-05T10:16:08.459Z,239.65
2023-05-05T10:17:08.448Z,241.96
2023-05-05T10:18:08.731Z,238.41
2023-05-05T10:19:08.513Z,240.53
2023-05-05T10:20:08.825Z,242.26
2023-05-05T10:21:08.556Z,243.07
2023-05-05T10:22:08.585Z,243.85
2023-05-05T10:23:08.599Z,244.93
2023-05-05T10:24:08.655Z,243.79
2023-05-05T10:25:08.636Z,246.10
2023-05-05T10:26:08.693Z,246.84
2023-05-05T10:27:09.757Z,246.65
2023-05-05T10:28:08.756Z,248.24
2023-05-05T10:29:08.751Z,247.37
2023-05-05T10:30:08.948Z,248.20
2023-05-05T10:31:20.375Z,248.24
2023-05-05T10:32:33.505Z,248.32
2023-05-05T10:34:08.919Z,248.48
2023-05-05T10:35:08.695Z,249.15
2023-05-05T10:36:08.708Z,250.77
2023-05-05T10:37:08.670Z,250.97
2023-05-05T10:38:08.681Z,240.48
2023-05-05T10:39:08.663Z,222.80
2023-05-05T10:40:08.887Z,206.55
2023-05-05T10:41:08.624Z,208.31
2023-05-05T10:42:08.708Z,204.55
2023-05-05T10:43:08.777Z,200.09
2023-05-05T10:44:08.620Z,186.97
2023-05-05T10:45:08.663Z,178.71
2023-05-05T10:46:08.681Z,152.67
2023-05-05T10:47:08.612Z,129.65
2023-05-05T10:48:08.668Z,122.44
2023-05-05T10:49:10.054Z,132.08
2023-05-05T10:50:08.981Z,130.14
2023-05-05T10:51:08.595Z,128.78
2023-05-05T10:52:08.564Z,143.36
2023-05-05T10:53:08.580Z,144.64
2023-05-05T10:54:08.657Z,141.21
2023-05-05T10:55:08.562Z,142.93
2023-05-05T10:56:08.522Z,149.63
2023-05-05T10:57:08.533Z,151.24
2023-05-05T10:58:08.561Z,150.06
2023-05-05T10:59:08.717Z,143.59
2023-05-05T11:00:08.795Z,136.59
2023-05-05T11:01:08.534Z,134.50
2023-05-05T11:02:08.588Z,133.28
2023-05-05T11:03:08.571Z,132.42
2023-05-05T11:04:08.519Z,125.97
2023-05-05T11:05:08.558Z,121.80
2023-05-05T11:06:08.484Z,127.02
2023-05-05T11:07:09.242Z,62.85
2023-05-05T11:08:08.450Z,62.91
2023-05-05T11:09:08.449Z,62.90
2023-05-05T11:10:08.761Z,64.93
2023-05-05T11:11:08.423Z,69.63
2023-05-05T11:12:08.430Z,72.78
2023-05-05T11:13:08.508Z,73.87
2023-05-05T11:14:08.416Z,68.04
2023-05-05T11:15:08.432Z,66.71
2023-05-05T11:16:08.423Z,56.56
2023-05-05T11:17:08.370Z,49.82
2023-05-05T11:18:08.790Z,52.04
2023-05-05T11:19:08.375Z,51.90
2023-05-05T11:20:08.616Z,50.38
2023-05-05T11:21:08.353Z,51.27
2023-05-05T11:22:08.324Z,51.97
2023-05-05T11:23:08.321Z,51.15
2023-05-05T11:24:08.358Z,54.51
2023-05-05T11:25:08.314Z,59.61
2023-05-05T11:26:08.353Z,64.18
2023-05-05T11:27:08.324Z,67.47
2023-05-05T11:28:08.507Z,69.77
2023-05-05T11:29:08.760Z,69.07
2023-05-05T11:30:08.517Z,73.45
2023-05-05T11:31:08.377Z,74.72
2023-05-05T11:32:08.277Z,80.29
2023-05-05T11:33:08.314Z,78.59
2023-05-05T11:34:08.279Z,84.67
2023-05-05T11:35:08.311Z,87.15
2023-05-05T11:36:08.293Z,92.03
2023-05-05T11:37:08.270Z,91.72
2023-05-05T11:38:08.223Z,93.19
2023-05-05T11:39:08.198Z,96.26
2023-05-05T11:40:08.354Z,100.99
2023-05-05T11:41:08.216Z,103.71
2023-05-05T11:42:10.764Z,105.58
2023-05-05T11:43:08.227Z,108.86
2023-05-05T11:44:08.190Z,110.74
2023-05-05T11:45:08.194Z,111.46
2023-05-05T11:46:08.242Z,114.43
2023-05-05T11:47:08.260Z,114.24
2023-05-05T11:48:08.238Z,116.57
2023-05-05T11:49:08.169Z,120.21
2023-05-05T11:50:08.555Z,119.14
2023-05-05T11:51:08.146Z,123.23
2023-05-05T11:52:08.164Z,125.04
2023-05-05T11:53:08.123Z,127.36
2023-05-05T11:54:08.142Z,129.51
2023-05-05T11:55:08.133Z,129.68
2023-05-05T11:56:08.124Z,132.31
2023-05-05T11:57:08.130Z,132.65
2023-05-05T11:58:08.129Z,135.02
2023-05-05T11:59:08.079Z,137.20
2023-05-05T12:00:08.376Z,137.18
2023-05-05T12:01:08.094Z,134.55
2023-05-05T12:02:08.050Z,135.36
2023-05-05T12:03:08.166Z,136.89
2023-05-05T12:04:08.204Z,136.10
2023-05-05T12:05:08.019Z,136.59
2023-05-05T12:06:08.017Z,137.68
2023-05-05T12:07:08.007Z,137.09
2023-05-05T12:08:08.043Z,140.01
2023-05-05T12:09:07.996Z,141.96
2023-05-05T12:10:08.171Z,144.45
2023-05-05T12:11:07.982Z,146.68
2023-05-05T12:12:08.033Z,144.44
2023-05-05T12:13:07.967Z,139.17
2023-05-05T12:14:07.960Z,137.55
2023-05-05T12:15:07.986Z,139.65
2023-05-05T12:16:08.019Z,140.01
2023-05-05T12:17:08.022Z,142.88
2023-05-05T12:18:07.945Z,143.65
2023-05-05T12:19:08.008Z,141.48
2023-05-05T12:20:08.161Z,141.99
2023-05-05T12:21:07.907Z,140.89
2023-05-05T12:22:07.925Z,144.13
2023-05-05T12:23:07.886Z,145.41
2023-05-05T12:24:07.895Z,147.06
2023-05-05T12:25:07.983Z,147.20
2023-05-05T12:26:07.903Z,145.72
2023-05-05T12:27:07.878Z,143.53
2023-05-05T12:28:07.889Z,142.40
2023-05-05T12:29:07.882Z,142.71
2023-05-05T12:30:08.035Z,143.29
2023-05-05T12:31:07.854Z,142.35